createdAt,value
2018-09-07T02:14:09.166Z,10.50
2018-09-07T02:16:38.224Z,10.27
2018-09-07T02:19:07.282Z,10.10
2018-09-07T02:21:36.409Z,10.37
2018-09-07T02:24:05.433Z,10.07
2018-09-07T02:26:34.494Z,10.37
2018-09-07T02:31:39.333Z,12.00
2018-09-07T02:34:08.429Z,12.20
2018-09-07T02:36:38.445Z,9.93
2018-09-07T02:39:09.490Z,9.90
2018-09-07T02:41:39.511Z,10.17
2018-09-07T02:44:16.170Z,11.47
2018-09-07T02:46:47.224Z,13.13
2018-09-07T02:49:19.691Z,11.17
2018-09-07T02:51:50.737Z,12.93
2018-09-07T02:54:22.901Z,12.00
2018-09-07T03:02:03.436Z,19.77
2018-09-07T03:04:32.522Z,15.97
2018-09-07T03:07:03.555Z,15.57
2018-09-07T03:12:08.324Z,17.70
2018-09-07T03:25:00.490Z,21.00
2018-09-07T03:30:05.286Z,19.13
2018-09-07T03:35:10.157Z,18.83
2018-09-07T03:42:50.829Z,17.70
2018-09-07T03:45:19.903Z,18.37
2018-09-07T03:47:49.101Z,15.07
2018-09-07T03:52:53.881Z,17.17
2018-09-07T03:55:23.964Z,18.73
2018-09-07T03:57:53.011Z,13.97
2018-09-07T04:00:22.073Z,16.90
2018-09-07T04:02:51.142Z,14.97
2018-09-07T04:05:20.225Z,12.97
2018-09-07T04:07:49.315Z,17.07
2018-09-07T04:12:54.678Z,19.10
2018-09-07T04:15:23.747Z,19.07
2018-09-07T04:17:52.801Z,15.43
2018-09-07T04:20:21.868Z,15.20
2018-09-07T04:25:26.714Z,17.90
2018-09-07T04:27:55.773Z,16.80
2018-09-07T04:30:24.879Z,14.90
2018-09-07T04:32:53.994Z,14.73
2018-09-07T04:35:26.460Z,15.10
2018-09-07T04:37:56.480Z,14.87
2018-09-07T04:40:25.545Z,15.73
2018-09-07T04:42:54.604Z,15.40
2018-09-07T04:48:00.473Z,22.00
2018-09-07T04:50:31.496Z,21.40
2018-09-07T04:55:36.281Z,21.80
2018-09-07T05:03:16.964Z,23.87
2018-09-07T05:05:46.038Z,22.40
2018-09-07T05:08:15.105Z,22.90
2018-09-07T05:10:44.198Z,18.80
2018-09-07T05:13:13.260Z,22.47
2018-09-07T05:15:42.367Z,19.40
2018-09-07T05:18:11.431Z,18.30
2018-09-07T05:20:40.497Z,19.27
2018-09-07T05:23:09.557Z,17.57
2018-09-07T05:25:41.544Z,24.43
2018-09-07T05:30:47.404Z,25.87
2018-09-07T05:33:16.472Z,22.40
2018-09-07T05:35:45.537Z,23.50
2018-09-07T05:38:14.614Z,24.00
2018-09-07T05:40:43.686Z,28.90
2018-09-07T05:43:14.655Z,24.03
2018-09-07T05:45:43.722Z,22.60
2018-09-07T05:48:12.785Z,21.43
2018-09-07T05:50:41.853Z,21.47
2018-09-07T05:53:11.994Z,28.50
2018-09-07T05:58:17.368Z,30.15
2018-09-07T06:00:46.440Z,26.63
2018-09-07T06:03:16.433Z,30.27
2018-09-07T06:05:45.489Z,27.43
2018-09-07T06:08:14.565Z,25.40
2018-09-07T06:10:43.637Z,30.30
2018-09-07T06:13:12.701Z,25.77
2018-09-07T06:15:41.831Z,25.80
2018-09-07T06:18:10.902Z,23.03
2018-09-07T06:20:40.962Z,22.63
2018-09-07T06:23:10.033Z,24.20
2018-09-07T06:28:14.816Z,29.37
2018-09-07T06:30:43.888Z,30.52
2018-09-07T06:33:13.085Z,25.17
2018-09-07T06:35:44.040Z,24.33
2018-09-07T06:38:13.187Z,21.93
2018-09-07T06:40:53.002Z,23.63
2018-09-07T06:43:36.196Z,24.83
2018-09-07T06:48:45.096Z,27.02
2018-09-07T06:51:14.146Z,22.93
2018-09-07T06:53:45.286Z,22.40
2018-09-07T06:58:50.072Z,27.87
2018-09-07T07:03:54.922Z,24.37
2018-09-07T07:06:24.947Z,24.80
2018-09-07T07:11:29.804Z,24.25
2018-09-07T07:13:58.874Z,25.20
2018-09-07T07:16:27.943Z,25.45
2018-09-07T07:18:57.013Z,18.97
2018-09-07T07:21:26.081Z,21.13
2018-09-07T07:26:30.941Z,22.75
2018-09-07T07:29:04.559Z,23.15
2018-09-07T07:31:33.583Z,18.90
2018-09-07T07:34:02.634Z,19.13
2018-09-07T07:36:32.759Z,20.95
2018-09-07T07:41:38.640Z,20.20
2018-09-07T07:46:43.490Z,19.55
2018-09-07T07:51:48.334Z,17.70
2018-09-07T07:56:54.216Z,19.17
2018-09-07T07:59:23.260Z,17.75
2018-09-07T08:01:52.322Z,14.77
2018-09-07T08:07:01.135Z,14.98
2018-09-07T08:09:30.185Z,13.00
2018-09-07T08:11:59.400Z,15.80
2018-09-07T08:14:28.462Z,14.90
2018-09-07T08:16:57.518Z,15.00
2018-09-07T08:22:02.529Z,16.80
2018-09-07T08:24:31.581Z,15.33
2018-09-07T08:27:00.651Z,16.77
2018-09-07T08:29:29.692Z,15.23
2018-09-07T08:31:59.705Z,15.93
2018-09-07T08:34:29.721Z,15.40
2018-09-07T08:36:58.780Z,14.37
2018-09-07T08:39:27.842Z,14.60
2018-09-07T08:41:58.868Z,16.98
2018-09-07T08:44:27.929Z,13.23
2018-09-07T08:46:57.983Z,13.80
2018-09-07T08:49:27.233Z,14.85
2018-09-07T08:51:56.282Z,14.83
2018-09-07T08:54:25.371Z,13.20
2018-09-07T08:56:55.401Z,15.20
2018-09-07T08:59:24.465Z,16.02
2018-09-07T09:01:53.514Z,13.20
2018-09-07T09:04:22.572Z,13.20
2018-09-07T09:09:31.346Z,13.90
2018-09-07T09:12:00.401Z,12.57
2018-09-07T09:14:29.456Z,11.77
2018-09-07T09:16:58.535Z,10.63
2018-09-07T09:19:27.734Z,10.87
2018-09-07T09:21:56.770Z,11.47
2018-09-07T09:24:25.931Z,11.95
2018-09-07T09:26:54.920Z,11.23
2018-09-07T09:31:59.705Z,12.60
2018-09-07T09:37:04.552Z,11.93
2018-09-07T09:39:33.653Z,12.70
2018-09-07T09:42:04.714Z,11.17
2018-09-07T09:44:33.794Z,11.50
2018-09-07T09:47:04.754Z,11.20
2018-09-07T09:49:33.835Z,10.63
2018-09-07T09:52:03.884Z,12.00
2018-09-07T09:54:33.054Z,10.80
2018-09-07T09:57:02.162Z,10.83
2018-09-07T09:59:31.185Z,11.40
2018-09-07T10:04:54.958Z,12.45
2018-09-07T10:07:24.945Z,9.87
2018-09-07T10:09:54.903Z,9.40
2018-09-07T10:12:23.949Z,8.40
2018-09-07T10:17:28.746Z,9.32
2018-09-07T10:19:57.849Z,9.55
2018-09-07T10:22:26.909Z,9.03
2018-09-07T10:24:56.047Z,8.43
2018-09-07T10:27:25.110Z,8.77
2018-09-07T10:29:57.674Z,8.03
2018-09-07T10:35:02.851Z,8.40
2018-09-07T10:37:31.931Z,8.10
2018-09-07T10:40:01.873Z,8.37
2018-09-07T10:42:30.959Z,9.10
2018-09-07T10:47:35.848Z,8.80
2018-09-07T10:50:05.832Z,7.93
2018-09-07T10:57:46.459Z,6.90
2018-09-07T11:00:15.501Z,7.50
2018-09-07T11:02:44.548Z,6.53
2018-09-07T11:05:13.629Z,6.50
2018-09-07T11:07:42.670Z,6.70
2018-09-07T11:10:11.723Z,7.37
2018-09-07T11:12:40.780Z,7.43
2018-09-07T11:17:45.628Z,7.47
2018-09-07T11:20:14.675Z,7.00
2018-09-07T11:25:20.689Z,7.50
2018-09-07T11:27:50.668Z,7.15
2018-09-07T11:32:55.557Z,6.65
2018-09-07T11:35:25.534Z,7.25
2018-09-07T11:40:30.336Z,7.60
2018-09-07T11:42:59.556Z,6.30
2018-09-07T11:45:28.619Z,7.20
2018-09-07T11:47:57.657Z,6.77
2018-09-07T11:53:02.527Z,6.72
2018-09-07T11:55:32.474Z,6.90
2018-09-07T11:58:01.604Z,6.35
2018-09-07T12:03:06.399Z,6.50
2018-09-07T12:05:35.437Z,7.40
2018-09-07T12:08:05.457Z,7.12
2018-09-07T12:10:34.518Z,7.33
2018-09-07T12:13:03.635Z,6.50
2018-09-07T12:15:33.579Z,7.10
2018-09-07T12:20:38.449Z,7.80
2018-09-07T12:23:07.559Z,7.10
2018-09-07T12:25:39.591Z,7.03
2018-09-07T12:28:08.689Z,7.60
2018-09-07T12:30:37.683Z,7.70
2018-09-07T12:35:42.559Z,7.90
2018-09-07T12:38:11.681Z,12.35
2018-09-07T12:40:40.816Z,13.77
2018-09-07T12:43:10.905Z,12.13
2018-09-07T12:45:39.969Z,13.17
2018-09-07T12:48:11.001Z,14.70
2018-09-07T12:50:42.046Z,14.30
2018-09-07T12:53:14.207Z,12.87
2018-09-07T12:55:47.000Z,12.40
2018-09-07T12:58:17.016Z,11.40
2018-09-07T13:00:46.066Z,13.20
2018-09-07T13:03:15.125Z,13.30
2018-09-07T13:05:46.165Z,13.57
2018-09-07T13:08:15.285Z,13.47
2018-09-07T13:10:44.288Z,12.60
2018-09-07T13:13:13.338Z,9.90
2018-09-07T13:15:43.378Z,9.37
2018-09-07T13:18:14.422Z,7.97
2018-09-07T13:20:43.469Z,8.83
2018-09-07T13:23:12.564Z,7.90
2018-09-07T13:25:41.668Z,8.00
2018-09-07T13:28:12.629Z,8.20
2018-09-07T13:30:41.682Z,9.05
2018-09-07T13:33:12.694Z,9.50
2018-09-07T13:35:41.850Z,7.90
2018-09-07T13:38:10.810Z,8.07
2018-09-07T13:40:39.849Z,9.37
2018-09-07T13:43:08.973Z,8.20
2018-09-07T13:48:13.779Z,9.45
2018-09-07T13:50:46.141Z,9.00
2018-09-07T13:53:18.870Z,8.00
2018-09-07T13:55:52.156Z,8.20
2018-09-07T13:58:21.197Z,9.40
2018-09-07T14:00:50.245Z,7.93
2018-09-07T14:03:22.669Z,8.83
2018-09-07T14:05:51.740Z,7.47
2018-09-07T14:16:09.321Z,8.02
2018-09-07T14:18:39.293Z,8.07
2018-09-07T14:21:08.316Z,7.33
2018-09-07T14:23:39.268Z,7.47
2018-09-07T14:26:09.228Z,6.87
2018-09-07T14:28:38.273Z,7.47
2018-09-07T14:31:07.325Z,7.40
2018-09-07T14:36:12.294Z,7.40
2018-09-07T14:38:41.292Z,7.57
2018-09-07T14:41:10.349Z,7.00
2018-09-07T14:43:39.408Z,7.43
2018-09-07T14:46:08.489Z,7.00
2018-09-07T14:48:37.589Z,7.40
2018-09-07T14:51:06.596Z,8.20
2018-09-07T14:53:35.653Z,7.87
2018-09-07T14:56:04.702Z,7.70
2018-09-07T14:58:33.772Z,7.23
2018-09-07T15:01:02.878Z,7.50
2018-09-07T15:03:32.904Z,8.03
2018-09-07T15:06:01.947Z,7.13
2018-09-07T15:08:31.980Z,7.37
2018-09-07T15:11:01.009Z,7.80
2018-09-07T15:16:05.892Z,7.62
2018-09-07T15:18:35.921Z,8.50
2018-09-07T15:21:05.901Z,8.63
2018-09-07T15:23:34.965Z,8.20
2018-09-07T15:26:05.050Z,8.50
2018-09-07T15:28:34.072Z,8.88
2018-09-07T15:31:03.344Z,8.53
2018-09-07T15:33:34.368Z,8.47
2018-09-07T15:38:39.277Z,9.43
2018-09-07T15:41:11.621Z,8.80
2018-09-07T15:43:40.667Z,8.57
2018-09-07T15:48:50.502Z,9.77
2018-09-07T15:53:56.244Z,10.00
2018-09-07T16:01:37.869Z,9.30
2018-09-07T16:04:06.920Z,10.93
2018-09-07T16:06:35.981Z,9.03
2018-09-07T16:09:06.993Z,10.10
2018-09-07T16:11:36.055Z,9.07
2018-09-07T16:14:07.020Z,8.80
2018-09-07T16:16:37.125Z,9.80
2018-09-07T16:19:06.174Z,10.50
2018-09-07T16:24:11.052Z,9.80
2018-09-07T16:26:40.134Z,10.65
2018-09-07T16:31:44.984Z,11.00
2018-09-07T16:36:51.774Z,10.48
2018-09-07T16:40:36.405Z,10.10
2018-09-07T16:43:06.416Z,10.30
2018-09-07T16:48:12.277Z,10.48
2018-09-07T16:50:41.326Z,11.32
2018-09-07T16:53:11.401Z,10.03
2018-09-07T16:55:40.482Z,10.10
2018-09-07T16:58:09.522Z,13.27
2018-09-07T17:05:49.643Z,12.73
2018-09-07T17:08:20.624Z,12.60
2018-09-07T17:10:51.685Z,14.03
2018-09-07T17:13:20.760Z,14.10
2018-09-07T17:23:37.272Z,19.87
2018-09-07T17:26:06.347Z,17.97
2018-09-07T17:28:35.412Z,15.90
2018-09-07T17:31:04.485Z,18.20
2018-09-07T17:36:16.376Z,22.10
2018-09-07T17:38:45.452Z,22.30
2018-09-07T17:41:14.533Z,18.13
2018-09-07T17:43:53.588Z,17.13
2018-09-07T17:49:00.372Z,22.48
2018-09-07T17:51:29.438Z,21.58
2018-09-07T17:53:58.660Z,19.60
2018-09-07T17:59:04.451Z,18.05
2018-09-07T18:01:33.522Z,19.45
2018-09-07T18:04:03.748Z,20.12
2018-09-07T18:06:32.781Z,20.12
2018-09-07T18:11:37.641Z,21.83
2018-09-07T18:14:06.713Z,20.37
2018-09-07T18:16:35.773Z,19.77
2018-09-07T18:19:04.838Z,16.63
2018-09-07T18:21:36.009Z,20.00
2018-09-07T18:24:05.106Z,19.40
2018-09-07T18:26:34.157Z,18.77
2018-09-07T18:29:03.226Z,17.33
2018-09-07T18:31:32.291Z,17.50
2018-09-07T18:34:05.075Z,16.17
2018-09-07T18:36:36.083Z,18.10
2018-09-07T18:39:05.179Z,15.63
2018-09-07T18:41:34.197Z,15.90
2018-09-07T18:44:03.310Z,20.00
2018-09-07T18:46:32.332Z,17.57
2018-09-07T18:49:01.397Z,16.80
2018-09-07T18:51:30.500Z,18.00
2018-09-07T18:53:59.543Z,17.17
2018-09-07T18:56:28.650Z,16.90
2018-09-07T19:01:33.469Z,18.80
2018-09-07T19:06:38.401Z,21.17
2018-09-07T19:09:07.489Z,20.88
2018-09-07T19:11:36.562Z,21.98
2018-09-07T19:14:05.625Z,23.52
2018-09-07T19:16:34.685Z,18.57
2018-09-07T19:19:07.332Z,21.83
2018-09-07T19:21:36.469Z,19.07
2018-09-07T19:24:05.536Z,17.10
2018-09-07T19:26:34.625Z,16.63
2018-09-07T19:29:03.722Z,14.60
2018-09-07T19:36:44.388Z,19.75
2018-09-07T19:39:14.395Z,20.85
2018-09-07T19:41:43.448Z,17.67
2018-09-07T19:44:12.574Z,18.70
2018-09-07T19:46:41.589Z,18.93
2018-09-07T19:49:11.655Z,16.87
2018-09-07T19:51:40.670Z,17.23
2018-09-07T19:54:11.802Z,18.20
2018-09-07T19:56:42.785Z,17.90
2018-09-07T19:59:12.809Z,17.13
2018-09-07T20:01:41.871Z,18.77
2018-09-07T20:04:10.943Z,17.17
2018-09-07T20:06:40.068Z,21.40
2018-09-07T20:09:13.209Z,17.87
2018-09-07T20:11:44.189Z,18.00
2018-09-07T20:14:13.329Z,17.50
2018-09-07T20:19:18.122Z,18.27
2018-09-07T20:24:22.900Z,16.95
2018-09-07T20:26:51.965Z,17.02
2018-09-07T20:29:21.046Z,16.85
2018-09-07T20:31:50.113Z,16.13
2018-09-07T20:34:28.556Z,16.57
2018-09-07T20:37:00.857Z,14.47
2018-09-07T20:42:05.879Z,18.73
2018-09-07T20:44:34.961Z,21.37
2018-09-07T20:47:04.014Z,18.20
